Blue Island, Illinois
Current Conditions -  °F | °C
As of 9:53 AM on Friday 21 Nov 2014 (Local Time) from KMDW Reporting Station
Clear Clear  
Wind Chill: 18°   Ceiling: Unl
Heat Index: 25°   Visibility: 10mi
Dew Point:   Wind: 6mph
Humidity: 39%   Direction: 170°S
Pressure: 30.47"   Gusts: NA
Location:  41.66°N, 87.68°W
Report Text: KMDW 211553Z 17005KT 10SM CLR M04/M16 A3047 RMK AO2 SLP336 T10391161
Loading
Personal Weather Stations






























Interactive Weather Map New forecast layout! Learn more

10-Day Weather Forecast

Advertisements
Track Severe Weather on mobile